Date,TemperatureHighF,TemperatureAvgF,TemperatureLowF,DewpointHighF,DewpointAvgF,DewpointLowF,HumidityHigh,HumidityAvg,HumidityLow,PressureMaxIn,PressureMinIn,WindSpeedMaxMPH,WindSpeedAvgMPH,GustSpeedMaxMPH,PrecipitationSumIn
2013-2-1,58,51,46,55,46,26,99,86,31,30.38,29.80,12,3,22,0.01
2013-2-2,55,50,43,49,40,33,94,70,57,29.89,29.63,11,2,26,0.06
2013-2-3,48,44,36,33,27,18,76,51,31,30.35,29.88,11,1,26,0.00
2013-2-4,56,46,34,40,34,26,83,66,45,30.41,30.30,11,3,21,0.00
2013-2-5,60,52,42,50,44,40,97,76,53,30.32,29.98,8,1,14,0.00
2013-2-6,53,49,44,48,35,30,98,59,47,29.96,29.77,12,2,29,0.13
2013-2-7,50,45,40,40,31,20,87,59,34,30.10,29.83,9,0,19,0.19
2013-2-8,53,44,35,40,33,26,87,66,50,30.09,29.88,6,0,13,0.00
2013-2-9,49,42,37,38,31,24,86,64,43,30.19,30.02,10,0,21,0.00
2013-2-10,58,50,38,49,40,33,89,68,44,30.15,29.73,13,0,24,0.00
2013-2-11,54,49,44,49,35,29,89,59,46,29.76,29.63,7,0,17,0.08
2013-2-12,52,48,43,40,35,27,80,61,44,29.99,29.68,8,0,19,0.06
2013-2-13,56,48,39,45,40,34,87,73,56,30.16,29.96,8,0,12,0.00
2013-2-14,62,51,37,47,43,34,91,75,55,30.22,30.15,7,0,11,0.00
2013-2-15,62,53,45,52,45,41,99,77,49,30.22,30.09,10,2,15,0.00
2013-2-16,60,52,42,47,44,40,92,75,57,30.22,30.12,7,1,11,0.00
2013-2-17,54,50,41,50,46,39,94,86,77,30.13,29.96,5,0,8,0.00
2013-2-18,60,52,47,55,49,46,98,89,71,30.00,29.90,4,0,8,0.00
2013-2-19,60,52,44,52,45,39,99,79,54,30.02,29.94,4,0,11,0.01
2013-2-20,61,52,42,42,38,35,82,60,44,29.99,29.88,4,0,7,0.00
2013-2-21,62,53,42,54,47,38,96,81,55,29.94,29.72,10,2,15,0.00
2013-2-22,60,54,48,52,47,42,93,78,57,29.72,29.53,9,1,16,0.02
2013-2-23,50,42,36,48,40,35,98,90,79,29.89,29.37,12,2,21,0.13
2013-2-24,49,42,35,35,29,26,88,61,46,29.99,29.88,2,0,11,0.09
2013-2-25,45,38,33,40,35,31,95,88,67,30.13,29.99,5,0,9,0.05
2013-2-26,49,40,32,41,34,28,96,78,59,30.21,30.09,8,0,13,0.00
2013-2-27,52,42,28,39,33,25,90,73,51,30.22,30.10,6,0,11,0.00
2013-2-28,50,47,41,49,46,36,99,94,78,30.09,29.82,9,1,20,1.18